createdAt,value
2022-10-13T00:00:50.949Z,97.86
2022-10-13T00:03:18.009Z,98.16
2022-10-13T00:05:48.124Z,98.27
2022-10-13T00:08:19.910Z,98.46
2022-10-13T00:10:48.837Z,98.39
2022-10-13T00:13:16.535Z,98.80
2022-10-13T00:15:46.264Z,99.16
2022-10-13T00:18:13.508Z,99.18
2022-10-13T00:20:49.163Z,99.50
2022-10-13T00:23:16.682Z,99.50
2022-10-13T00:25:45.777Z,99.88
2022-10-13T00:28:13.693Z,99.92
2022-10-13T00:30:41.307Z,100.00
2022-10-13T00:33:08.542Z,100.00
2022-10-13T00:35:41.241Z,100.00
2022-10-13T00:38:08.322Z,100.00
2022-10-13T00:40:42.662Z,100.00
2022-10-13T00:43:48.505Z,100.00
2022-10-13T00:46:16.306Z,100.00
2022-10-13T00:48:44.555Z,100.00
2022-10-13T00:51:14.875Z,100.00
2022-10-13T00:53:44.208Z,100.00
2022-10-13T00:56:14.197Z,100.00
2022-10-13T00:58:41.682Z,100.00
2022-10-13T01:01:08.849Z,100.00
2022-10-13T01:03:36.659Z,100.00
2022-10-13T01:06:05.933Z,100.00
2022-10-13T01:08:33.806Z,100.00
2022-10-13T01:11:36.384Z,100.00
2022-10-13T01:14:27.002Z,100.00
2022-10-13T01:16:56.709Z,100.00
2022-10-13T01:19:52.455Z,100.00
2022-10-13T01:22:37.255Z,100.00
2022-10-13T01:25:17.781Z,100.00
2022-10-13T01:28:02.671Z,100.00
2022-10-13T01:30:36.590Z,100.00
2022-10-13T01:33:12.357Z,100.00
2022-10-13T01:35:42.071Z,100.00
2022-10-13T01:38:33.696Z,100.00
2022-10-13T01:41:33.944Z,100.00
2022-10-13T01:44:16.517Z,100.00
2022-10-13T01:46:46.030Z,100.00
2022-10-13T01:49:16.738Z,100.00
2022-10-13T01:51:45.718Z,100.00
2022-10-13T01:54:12.500Z,100.00
2022-10-13T01:56:39.256Z,100.00
2022-10-13T01:59:15.079Z,100.00
2022-10-13T02:02:15.657Z,100.00
2022-10-13T02:05:03.242Z,100.00
2022-10-13T02:07:49.739Z,100.00
2022-10-13T02:10:34.583Z,100.00
2022-10-13T02:13:06.233Z,100.00
2022-10-13T02:15:42.714Z,100.00
2022-10-13T02:18:13.146Z,100.00
2022-10-13T02:20:42.473Z,100.00
2022-10-13T02:23:13.030Z,100.00
2022-10-13T02:25:40.920Z,100.00
2022-10-13T02:28:09.462Z,100.00
2022-10-13T02:30:39.571Z,100.00
2022-10-13T02:33:06.720Z,100.00
2022-10-13T02:35:34.413Z,100.00
2022-10-13T02:38:01.232Z,100.00
2022-10-13T02:40:28.795Z,100.00
2022-10-13T02:42:55.582Z,100.00
2022-10-13T02:45:22.599Z,100.00
2022-10-13T02:47:49.474Z,100.00
2022-10-13T02:50:16.303Z,100.00
2022-10-13T02:52:43.065Z,100.00
2022-10-13T02:55:10.225Z,100.00
2022-10-13T02:57:37.100Z,100.00
2022-10-13T03:00:05.935Z,100.00
2022-10-13T03:02:32.958Z,100.00
2022-10-13T03:04:59.773Z,100.00
2022-10-13T03:07:26.511Z,100.00
2022-10-13T03:09:53.314Z,100.00
2022-10-13T03:12:20.277Z,100.00
2022-10-13T03:14:47.139Z,100.00
2022-10-13T03:17:14.035Z,100.00
2022-10-13T03:19:40.926Z,100.00
2022-10-13T03:22:07.727Z,100.00
2022-10-13T03:24:34.459Z,100.00
2022-10-13T03:27:01.238Z,100.00
2022-10-13T03:29:28.049Z,100.00
2022-10-13T03:31:54.777Z,100.00
2022-10-13T03:34:21.522Z,100.00
2022-10-13T03:36:48.216Z,100.00
2022-10-13T03:39:15.155Z,100.00
2022-10-13T03:41:42.245Z,100.00
2022-10-13T03:44:12.673Z,100.00
2022-10-13T03:46:40.078Z,100.00
2022-10-13T03:49:11.542Z,100.00
2022-10-13T03:51:38.902Z,100.00
2022-10-13T03:54:05.742Z,100.00
2022-10-13T03:56:32.507Z,100.00
2022-10-13T03:59:07.562Z,100.00
2022-10-13T04:01:34.430Z,100.00
2022-10-13T04:04:02.951Z,100.00
2022-10-13T04:06:31.244Z,100.00
2022-10-13T04:09:06.613Z,100.00
2022-10-13T04:11:33.758Z,100.00
2022-10-13T04:14:00.572Z,100.00
2022-10-13T04:16:29.734Z,100.00
2022-10-13T04:19:11.895Z,100.00
2022-10-13T04:21:39.401Z,100.00
2022-10-13T04:24:12.301Z,100.00
2022-10-13T04:26:39.324Z,100.00
2022-10-13T04:29:13.289Z,100.00
2022-10-13T04:31:42.877Z,100.00
2022-10-13T04:34:10.388Z,100.00
2022-10-13T04:36:37.256Z,100.00
2022-10-13T04:39:07.358Z,100.00
2022-10-13T04:41:34.148Z,100.00
2022-10-13T04:44:02.698Z,100.00
2022-10-13T04:46:30.010Z,100.00
2022-10-13T04:48:57.479Z,100.00
2022-10-13T04:51:25.976Z,100.00
2022-10-13T04:54:01.277Z,100.00
2022-10-13T04:56:28.963Z,100.00
2022-10-13T04:58:55.704Z,100.00
2022-10-13T05:01:24.536Z,100.00
2022-10-13T05:04:02.274Z,100.00
2022-10-13T05:06:53.390Z,100.00
2022-10-13T05:09:24.593Z,100.00
2022-10-13T05:11:51.342Z,100.00
2022-10-13T05:14:18.108Z,100.00
2022-10-13T05:16:44.889Z,100.00
2022-10-13T05:19:11.658Z,100.00
2022-10-13T05:21:39.289Z,100.00
2022-10-13T05:24:06.693Z,100.00
2022-10-13T05:26:35.920Z,100.00
2022-10-13T05:29:13.083Z,100.00
2022-10-13T05:31:40.488Z,100.00
2022-10-13T05:34:07.211Z,100.00
2022-10-13T05:36:35.321Z,100.00
2022-10-13T05:39:08.562Z,100.00
2022-10-13T05:41:35.334Z,100.00
2022-10-13T05:44:04.669Z,100.00
2022-10-13T05:46:31.583Z,100.00
2022-10-13T05:48:59.015Z,100.00
2022-10-13T05:51:36.956Z,100.00
2022-10-13T05:54:11.470Z,100.00
2022-10-13T05:56:42.347Z,100.00
2022-10-13T05:59:17.117Z,100.00
2022-10-13T06:01:44.420Z,100.00
2022-10-13T06:04:23.868Z,100.00
2022-10-13T06:06:50.908Z,100.00
2022-10-13T06:09:18.393Z,100.00
2022-10-13T06:11:45.248Z,100.00
2022-10-13T06:14:12.039Z,100.00
2022-10-13T06:16:38.923Z,100.00
2022-10-13T06:19:12.306Z,100.00
2022-10-13T06:21:39.133Z,100.00
2022-10-13T06:24:06.079Z,100.00
2022-10-13T06:26:32.982Z,100.00
2022-10-13T06:29:08.089Z,100.00
2022-10-13T06:31:34.870Z,100.00
2022-10-13T06:34:01.688Z,100.00
2022-10-13T06:36:28.478Z,100.00
2022-10-13T06:38:55.418Z,100.00
2022-10-13T06:41:22.253Z,100.00
2022-10-13T06:43:49.057Z,100.00
2022-10-13T06:46:15.860Z,100.00
2022-10-13T06:48:43.201Z,100.00
2022-10-13T06:51:11.816Z,100.00
2022-10-13T06:53:38.831Z,100.00
2022-10-13T06:56:07.826Z,100.00
2022-10-13T06:58:36.002Z,100.00
2022-10-13T07:01:02.822Z,100.00
2022-10-13T07:03:29.907Z,100.00
2022-10-13T07:06:04.518Z,100.00
2022-10-13T07:08:32.774Z,100.00
2022-10-13T07:10:59.617Z,100.00
2022-10-13T07:13:26.451Z,100.00
2022-10-13T07:15:53.259Z,100.00
2022-10-13T07:18:20.171Z,100.00
2022-10-13T07:20:47.154Z,100.00
2022-10-13T07:23:13.918Z,100.00
2022-10-13T07:25:40.946Z,100.00
2022-10-13T07:28:07.715Z,100.00
2022-10-13T07:30:34.492Z,100.00
2022-10-13T07:33:01.508Z,100.00
2022-10-13T07:35:30.627Z,100.00
2022-10-13T07:37:57.881Z,100.00
2022-10-13T07:40:24.773Z,100.00
2022-10-13T07:42:51.536Z,100.00
2022-10-13T07:45:18.506Z,100.00
2022-10-13T07:47:45.266Z,100.00
2022-10-13T07:50:12.097Z,100.00
2022-10-13T07:52:39.343Z,100.00
2022-10-13T07:55:06.920Z,100.00
2022-10-13T07:57:33.713Z,100.00
2022-10-13T08:00:00.751Z,100.00
2022-10-13T08:02:27.577Z,100.00
2022-10-13T08:04:54.416Z,100.00
2022-10-13T08:07:21.385Z,100.00
2022-10-13T08:09:48.375Z,100.00
2022-10-13T08:12:15.327Z,100.00
2022-10-13T08:14:42.612Z,100.00
2022-10-13T08:17:09.659Z,100.00
2022-10-13T08:19:36.489Z,100.00
2022-10-13T08:22:05.543Z,100.00
2022-10-13T08:24:35.958Z,100.00
2022-10-13T08:27:02.727Z,100.00
2022-10-13T08:29:29.645Z,100.00
2022-10-13T08:31:56.659Z,100.00
2022-10-13T08:34:25.013Z,100.00
2022-10-13T08:36:54.781Z,100.00
2022-10-13T08:39:22.775Z,100.00
2022-10-13T08:41:50.195Z,100.00
2022-10-13T08:47:42.014Z,100.00
2022-10-13T08:50:25.313Z,100.00
2022-10-13T08:52:58.113Z,100.00
2022-10-13T08:55:37.761Z,100.00
2022-10-13T08:58:15.197Z,100.00
2022-10-13T09:00:42.646Z,100.00
2022-10-13T09:03:23.126Z,100.00
2022-10-13T09:06:00.666Z,100.00
2022-10-13T09:08:34.381Z,100.00
2022-10-13T09:11:03.085Z,100.00
2022-10-13T09:13:29.930Z,100.00
2022-10-13T09:15:58.314Z,100.00
2022-10-13T09:18:31.908Z,100.00
2022-10-13T09:21:19.631Z,100.00
2022-10-13T09:23:46.822Z,100.00
2022-10-13T09:26:38.017Z,100.00
2022-10-13T09:29:11.401Z,100.00
2022-10-13T09:31:38.664Z,100.00
2022-10-13T09:34:20.535Z,99.99
2022-10-13T09:37:02.241Z,99.91
2022-10-13T09:39:30.834Z,99.48
2022-10-13T09:42:22.001Z,99.51
2022-10-13T09:45:14.783Z,99.69
2022-10-13T09:47:49.007Z,99.03
2022-10-13T09:50:22.463Z,98.36
2022-10-13T09:52:49.551Z,98.33
2022-10-13T09:55:32.618Z,97.99
2022-10-13T09:58:06.009Z,97.94
2022-10-13T10:00:33.405Z,97.66
2022-10-13T10:03:15.895Z,97.73
2022-10-13T10:05:51.465Z,97.93
2022-10-13T10:09:05.256Z,98.31
2022-10-13T10:11:41.094Z,98.86
2022-10-13T10:14:26.605Z,99.08
2022-10-13T10:17:02.614Z,99.17
2022-10-13T10:19:35.335Z,99.28
2022-10-13T10:22:17.160Z,99.16
2022-10-13T10:25:01.526Z,98.95
2022-10-13T10:27:28.293Z,98.09
2022-10-13T10:30:02.631Z,98.39
2022-10-13T10:32:53.320Z,98.95
2022-10-13T10:35:32.287Z,99.04
2022-10-13T10:38:14.873Z,98.65
2022-10-13T10:41:06.265Z,98.76
2022-10-13T10:43:48.668Z,99.03
2022-10-13T10:46:23.328Z,98.45
2022-10-13T10:48:55.405Z,98.22
2022-10-13T10:51:28.407Z,98.44
2022-10-13T10:54:10.204Z,98.58
2022-10-13T10:56:44.876Z,98.82
2022-10-13T10:59:26.624Z,99.12
2022-10-13T11:02:08.738Z,99.26
2022-10-13T11:04:47.658Z,99.54
2022-10-13T11:07:23.547Z,98.46
2022-10-13T11:09:53.177Z,97.35
2022-10-13T11:12:20.218Z,96.27
2022-10-13T11:14:47.170Z,96.61
2022-10-13T11:17:34.374Z,95.12
2022-10-13T11:20:01.132Z,95.27
2022-10-13T11:22:31.834Z,95.93
2022-10-13T11:25:22.103Z,96.15
2022-10-13T11:27:48.907Z,96.32
2022-10-13T11:30:52.256Z,97.00
2022-10-13T11:33:38.728Z,97.32
2022-10-13T11:36:42.930Z,97.79
2022-10-13T11:39:28.402Z,97.84
2022-10-13T11:42:21.526Z,97.25
2022-10-13T11:45:18.817Z,96.39
2022-10-13T11:48:11.456Z,94.98
2022-10-13T11:50:55.686Z,94.80
2022-10-13T11:53:33.134Z,95.08
2022-10-13T11:56:03.759Z,95.40
2022-10-13T11:58:32.450Z,93.94
2022-10-13T12:01:13.100Z,90.62
2022-10-13T12:03:43.647Z,90.03
2022-10-13T12:06:35.780Z,89.21
2022-10-13T12:09:21.714Z,89.38
2022-10-13T12:12:00.220Z,89.11
2022-10-13T12:17:31.273Z,88.52
2022-10-13T12:20:00.615Z,88.16
2022-10-13T12:22:29.484Z,88.77
2022-10-13T12:25:00.590Z,86.26
2022-10-13T12:27:32.667Z,86.37
2022-10-13T12:30:03.113Z,85.95
2022-10-13T12:32:32.425Z,84.33
2022-10-13T12:35:20.401Z,84.28
2022-10-13T12:37:48.248Z,83.96
2022-10-13T12:40:25.682Z,84.56
2022-10-13T12:42:52.816Z,84.96
2022-10-13T12:45:22.887Z,85.46
2022-10-13T12:47:54.650Z,85.07
2022-10-13T12:50:30.523Z,84.95
2022-10-13T12:53:06.067Z,85.19
2022-10-13T12:55:33.517Z,84.86
2022-10-13T12:58:00.630Z,84.06
2022-10-13T13:00:35.493Z,84.15
2022-10-13T13:03:05.344Z,85.15
2022-10-13T13:05:35.197Z,85.42
2022-10-13T13:08:04.130Z,86.51
2022-10-13T13:10:31.480Z,86.48
2022-10-13T13:13:14.489Z,87.11
2022-10-13T13:15:41.687Z,86.92
2022-10-13T13:18:29.322Z,86.31
2022-10-13T13:20:56.497Z,86.08
2022-10-13T13:23:23.898Z,83.93
2022-10-13T13:26:13.910Z,85.22
2022-10-13T13:28:54.336Z,85.74
2022-10-13T13:31:23.368Z,86.35
2022-10-13T13:33:50.311Z,86.17
2022-10-13T13:36:21.629Z,86.74
2022-10-13T13:38:49.096Z,86.26
2022-10-13T13:41:17.171Z,85.63
2022-10-13T13:43:44.044Z,84.10
2022-10-13T13:46:23.566Z,83.93
2022-10-13T13:48:51.038Z,83.73
2022-10-13T13:51:18.223Z,82.88
2022-10-13T13:53:45.204Z,82.38
2022-10-13T13:56:20.493Z,82.32
2022-10-13T13:58:47.626Z,82.67
2022-10-13T14:01:14.782Z,81.98
2022-10-13T14:03:42.172Z,82.18
2022-10-13T14:06:09.391Z,82.26
2022-10-13T14:08:42.590Z,82.22
2022-10-13T14:11:10.283Z,81.67
2022-10-13T14:13:37.174Z,81.41
2022-10-13T14:16:04.578Z,80.93
2022-10-13T14:18:32.051Z,81.33
2022-10-13T14:20:59.099Z,80.53
2022-10-13T14:23:25.929Z,80.61
2022-10-13T14:25:52.668Z,80.98
2022-10-13T14:28:19.480Z,80.82
2022-10-13T14:30:46.299Z,80.32
2022-10-13T14:33:13.083Z,80.70
2022-10-13T14:35:39.834Z,80.45
2022-10-13T14:38:06.608Z,79.54
2022-10-13T14:40:33.347Z,78.73
2022-10-13T14:43:00.071Z,78.76
2022-10-13T14:45:26.836Z,78.52
2022-10-13T14:47:53.885Z,79.31
2022-10-13T14:50:20.742Z,78.92
2022-10-13T14:52:47.466Z,78.86
2022-10-13T14:55:14.317Z,79.89
2022-10-13T14:57:41.038Z,79.33
2022-10-13T15:00:08.462Z,78.97
2022-10-13T15:02:35.200Z,78.56
2022-10-13T15:05:01.990Z,78.62
2022-10-13T15:07:28.774Z,78.83
2022-10-13T15:10:10.716Z,78.83
2022-10-13T15:12:37.621Z,78.37
2022-10-13T15:15:05.064Z,78.10
2022-10-13T15:17:33.413Z,78.40
2022-10-13T15:20:00.710Z,78.39
2022-10-13T15:22:27.571Z,78.37
2022-10-13T15:24:54.335Z,78.17
2022-10-13T15:27:21.186Z,77.55
2022-10-13T15:29:47.934Z,78.05
2022-10-13T15:32:18.597Z,77.84
2022-10-13T15:34:46.166Z,77.62
2022-10-13T15:37:13.482Z,77.40
2022-10-13T15:39:40.381Z,77.71
2022-10-13T15:42:07.207Z,78.27
2022-10-13T15:44:51.305Z,78.28
2022-10-13T15:47:20.767Z,77.48
2022-10-13T15:49:47.495Z,77.52
2022-10-13T15:52:14.248Z,76.98
2022-10-13T15:54:41.123Z,75.76
2022-10-13T15:57:08.167Z,75.18
2022-10-13T15:59:35.017Z,75.69
2022-10-13T16:02:01.732Z,75.25
2022-10-13T16:04:29.759Z,74.84
2022-10-13T16:06:59.381Z,75.33
2022-10-13T16:09:26.197Z,75.42
2022-10-13T16:11:54.438Z,75.92
2022-10-13T16:14:21.414Z,76.14
2022-10-13T16:16:48.162Z,76.23
2022-10-13T16:19:15.270Z,76.43
2022-10-13T16:21:42.249Z,76.75
2022-10-13T16:24:09.036Z,76.77
2022-10-13T16:26:35.789Z,76.74
2022-10-13T16:29:07.021Z,76.87
2022-10-13T16:31:33.756Z,77.11
2022-10-13T16:34:00.586Z,77.73
2022-10-13T16:36:27.356Z,77.76
2022-10-13T16:38:55.106Z,78.42
2022-10-13T16:41:22.266Z,78.87
2022-10-13T16:43:49.220Z,78.93
2022-10-13T16:46:18.426Z,79.05
2022-10-13T16:48:46.333Z,79.23
2022-10-13T16:51:16.379Z,78.88
2022-10-13T16:53:43.413Z,79.09
2022-10-13T16:56:10.411Z,79.52
2022-10-13T16:58:37.198Z,79.37
2022-10-13T17:01:09.630Z,79.92
2022-10-13T17:03:37.684Z,80.29
2022-10-13T17:06:05.420Z,80.63
2022-10-13T17:08:32.766Z,80.70
2022-10-13T17:11:00.465Z,80.92
2022-10-13T17:13:27.293Z,81.83
2022-10-13T17:15:55.883Z,81.57
2022-10-13T17:18:23.324Z,81.61
2022-10-13T17:21:01.198Z,81.34
2022-10-13T17:23:29.351Z,82.02
2022-10-13T17:26:00.675Z,80.94
2022-10-13T17:28:27.536Z,81.12
2022-10-13T17:31:02.638Z,81.89
2022-10-13T17:33:32.796Z,82.55
2022-10-13T17:36:04.228Z,83.06
2022-10-13T17:38:31.575Z,82.83
2022-10-13T17:41:03.615Z,82.70
2022-10-13T17:43:31.125Z,82.73
2022-10-13T17:46:35.627Z,82.26
2022-10-13T17:49:12.562Z,81.25
2022-10-13T17:51:41.216Z,80.74
2022-10-13T17:54:14.429Z,80.80
2022-10-13T17:56:42.412Z,80.47
2022-10-13T17:59:10.104Z,80.49
2022-10-13T18:01:36.957Z,80.90
2022-10-13T18:04:11.364Z,81.66
2022-10-13T18:06:40.778Z,81.61
2022-10-13T18:09:14.448Z,81.62
2022-10-13T18:11:47.066Z,81.68
2022-10-13T18:14:17.182Z,81.39
2022-10-13T18:16:44.190Z,81.43
2022-10-13T18:19:12.408Z,81.46
2022-10-13T18:21:39.142Z,81.38
2022-10-13T18:24:06.226Z,81.91
2022-10-13T18:26:35.331Z,81.97
2022-10-13T18:29:08.160Z,81.81
2022-10-13T18:31:36.361Z,82.05
2022-10-13T18:34:12.861Z,82.99
2022-10-13T18:36:47.283Z,83.82
2022-10-13T18:39:16.918Z,84.49
2022-10-13T18:41:44.051Z,84.91
2022-10-13T18:44:11.344Z,85.30
2022-10-13T18:46:39.390Z,85.69
2022-10-13T18:49:14.520Z,86.09
2022-10-13T18:51:42.032Z,86.66
2022-10-13T18:54:10.149Z,86.79
2022-10-13T18:56:37.151Z,87.18
2022-10-13T18:59:07.931Z,86.74
2022-10-13T19:01:35.972Z,87.08
2022-10-13T19:04:03.243Z,87.23
2022-10-13T19:06:32.356Z,87.24
2022-10-13T19:09:09.789Z,87.33
2022-10-13T19:11:37.146Z,87.19
2022-10-13T19:14:05.892Z,87.16
2022-10-13T19:16:36.569Z,87.00
2022-10-13T19:19:13.358Z,87.47
2022-10-13T19:21:40.519Z,87.71
2022-10-13T19:24:08.259Z,87.93
2022-10-13T19:26:36.200Z,87.71
2022-10-13T19:29:10.302Z,87.80
2022-10-13T19:31:39.387Z,87.83
2022-10-13T19:34:06.239Z,88.03
2022-10-13T19:36:37.797Z,88.25
2022-10-13T19:39:22.329Z,88.50
2022-10-13T19:41:50.838Z,88.51
2022-10-13T19:44:19.740Z,88.27
2022-10-13T19:46:47.745Z,88.25
2022-10-13T19:49:16.875Z,88.84
2022-10-13T19:51:43.859Z,88.98
2022-10-13T19:54:11.455Z,89.14
2022-10-13T19:56:38.605Z,89.48
2022-10-13T19:59:07.610Z,89.95
2022-10-13T20:01:43.678Z,89.92
2022-10-13T20:04:11.197Z,89.75
2022-10-13T20:06:38.603Z,89.86
2022-10-13T20:09:10.749Z,89.85
2022-10-13T20:11:37.500Z,90.17
2022-10-13T20:14:04.462Z,90.38
2022-10-13T20:16:31.383Z,90.35
2022-10-13T20:19:00.653Z,90.37
2022-10-13T20:21:28.392Z,90.64
2022-10-13T20:23:56.211Z,90.79
2022-10-13T20:26:23.700Z,90.74
2022-10-13T20:28:51.781Z,90.74
2022-10-13T20:31:21.431Z,90.64
2022-10-13T20:33:49.856Z,90.86
2022-10-13T20:36:18.404Z,91.27
2022-10-13T20:38:45.346Z,91.22
2022-10-13T20:41:26.180Z,91.34
2022-10-13T20:43:54.880Z,91.95
2022-10-13T20:46:22.283Z,92.17
2022-10-13T20:51:36.412Z,92.59
2022-10-13T20:54:03.152Z,92.58
2022-10-13T20:56:30.007Z,93.02
2022-10-13T20:59:06.882Z,92.84
2022-10-13T21:01:34.696Z,92.84
2022-10-13T21:04:01.629Z,92.79
2022-10-13T21:06:28.512Z,92.55
2022-10-13T21:08:55.516Z,92.67
2022-10-13T21:11:23.684Z,92.97
2022-10-13T21:13:51.897Z,93.01
2022-10-13T21:16:23.275Z,93.46
2022-10-13T21:18:51.804Z,93.58
2022-10-13T21:21:21.321Z,93.59
2022-10-13T21:23:52.799Z,93.92
2022-10-13T21:26:22.162Z,94.13
2022-10-13T21:28:50.290Z,94.27
2022-10-13T21:31:18.863Z,94.20
2022-10-13T21:33:45.915Z,94.26
2022-10-13T21:36:15.228Z,94.25
2022-10-13T21:38:43.302Z,94.26
2022-10-13T21:41:12.827Z,93.96
2022-10-13T21:43:39.786Z,93.40
2022-10-13T21:46:09.670Z,93.31
2022-10-13T21:48:37.096Z,93.43
2022-10-13T21:51:12.533Z,93.49
2022-10-13T21:53:39.410Z,93.34
2022-10-13T21:56:07.384Z,93.41
2022-10-13T21:58:35.414Z,93.27
2022-10-13T22:01:02.934Z,93.42
2022-10-13T22:03:30.117Z,93.54
2022-10-13T22:05:56.972Z,93.84
2022-10-13T22:08:37.623Z,93.79
2022-10-13T22:11:06.453Z,93.87
2022-10-13T22:13:33.341Z,94.17
2022-10-13T22:16:19.058Z,94.14
2022-10-13T22:18:46.462Z,94.04
2022-10-13T22:21:17.476Z,93.81
2022-10-13T22:23:45.042Z,93.58
2022-10-13T22:26:12.761Z,93.47
2022-10-13T22:28:39.934Z,93.43
2022-10-13T22:31:09.878Z,93.59
2022-10-13T22:33:38.086Z,93.70
2022-10-13T22:36:09.636Z,93.87
2022-10-13T22:38:36.487Z,93.88
2022-10-13T22:41:05.462Z,94.27
2022-10-13T22:43:32.822Z,94.03
2022-10-13T22:45:59.693Z,94.28
2022-10-13T22:48:26.578Z,94.39
2022-10-13T22:50:53.622Z,94.55
2022-10-13T22:53:20.848Z,94.18
2022-10-13T22:55:50.669Z,94.67
2022-10-13T22:58:17.387Z,94.51
2022-10-13T23:00:44.225Z,94.52
2022-10-13T23:03:13.763Z,94.41
2022-10-13T23:05:47.486Z,94.63
2022-10-13T23:08:14.936Z,94.61
2022-10-13T23:10:41.713Z,94.28
2022-10-13T23:13:08.455Z,93.56
2022-10-13T23:15:38.370Z,93.54
2022-10-13T23:18:05.601Z,93.14
2022-10-13T23:20:32.370Z,93.29
2022-10-13T23:22:59.107Z,93.46
2022-10-13T23:25:25.828Z,93.33
2022-10-13T23:27:52.559Z,93.41
2022-10-13T23:30:19.345Z,93.46
2022-10-13T23:32:54.427Z,93.13
2022-10-13T23:35:21.258Z,93.06
2022-10-13T23:37:48.290Z,93.23
2022-10-13T23:40:15.331Z,93.16
2022-10-13T23:42:42.302Z,92.89
2022-10-13T23:45:09.488Z,93.08
2022-10-13T23:47:36.240Z,93.06
2022-10-13T23:50:03.483Z,92.99
2022-10-13T23:52:30.323Z,93.00
2022-10-13T23:54:57.012Z,92.61
2022-10-13T23:57:24.066Z,92.25
2022-10-13T23:59:50.903Z,92.00
